Time;durP1;ratioP1;P1;durP2;ratioP2;P2;SDS_P1;SDS_P2;PMS_P1;PMS_P2;Temp;Humidity;BMP_temperature;BMP_pressure;BME280_temperature;BME280_humidity;BME280_pressure;Samples;Min_cycle;Max_cycle;Signal;HPM_P1;HPM_P2
2021/07/07 00:01:14;;;;;;;3.25;2.95;;;24.40;99.90;;;;;;5057102;28;20020;-75
2021/07/07 00:03:40;;;;;;;4.00;2.83;;;24.40;99.90;;;;;;5058205;28;20544;-75
2021/07/07 00:06:06;;;;;;;2.92;2.72;;;24.40;99.90;;;;;;5058212;28;20020;-75
2021/07/07 00:08:32;;;;;;;3.17;2.75;;;24.40;99.90;;;;;;5058494;28;20484;-76
2021/07/07 00:10:58;;;;;;;2.75;2.55;;;24.40;99.90;;;;;;5057153;28;20041;-75
2021/07/07 00:13:24;;;;;;;4.03;3.03;;;24.40;99.90;;;;;;5055394;28;20052;-76
2021/07/07 00:15:50;;;;;;;5.57;2.83;;;24.50;99.90;;;;;;5054995;28;20054;-75
2021/07/07 00:18:16;;;;;;;2.70;2.60;;;24.50;99.90;;;;;;5054775;28;20037;-75
2021/07/07 00:21:04;;;;;;;4.20;3.05;;;24.50;99.90;;;;;;5054578;28;20116;-75
2021/07/07 00:23:30;;;;;;;4.00;2.60;;;24.40;99.90;;;;;;5054813;28;20494;-76
2021/07/07 00:25:56;;;;;;;2.85;2.65;;;24.40;99.90;;;;;;5053673;28;20025;-76
2021/07/07 00:28:23;;;;;;;2.83;2.60;;;24.40;99.90;;;;;;5054951;28;20025;-76
2021/07/07 00:30:50;;;;;;;3.20;3.00;;;24.40;99.90;;;;;;5054844;28;20025;-76
2021/07/07 00:33:17;;;;;;;2.60;2.50;;;24.30;99.90;;;;;;5053709;28;20479;-75
2021/07/07 00:35:43;;;;;;;4.07;2.83;;;24.30;99.90;;;;;;5054608;28;20104;-75
2021/07/07 00:38:09;;;;;;;3.10;2.90;;;24.20;99.90;;;;;;5054929;28;20087;-76
2021/07/07 00:40:36;;;;;;;3.00;2.70;;;24.30;99.90;;;;;;5054149;28;20509;-76
2021/07/07 00:43:02;;;;;;;2.95;2.72;;;24.30;99.90;;;;;;5053362;28;20037;-76
2021/07/07 00:45:28;;;;;;;3.15;2.95;;;24.30;99.90;;;;;;5053303;28;20535;-76
2021/07/07 00:47:54;;;;;;;3.15;2.72;;;24.20;99.90;;;;;;5054852;28;20032;-75
2021/07/07 00:50:20;;;;;;;3.53;3.05;;;24.20;99.90;;;;;;5054467;28;20032;-76
2021/07/07 00:52:45;;;;;;;3.47;3.22;;;24.20;99.90;;;;;;5054453;28;20061;-75
2021/07/07 00:55:14;;;;;;;3.63;2.70;;;24.20;99.90;;;;;;5053982;28;20025;-76
2021/07/07 00:57:46;;;;;;;3.08;2.88;;;24.20;99.90;;;;;;5054620;28;20032;-75
2021/07/07 01:00:13;;;;;;;;;;;24.20;99.90;;;;;;5052759;28;20056;-75
2021/07/07 01:02:42;;;;;;;3.35;3.05;;;24.10;99.90;;;;;;5054109;28;20231;-75
2021/07/07 01:05:10;;;;;;;3.28;3.03;;;24.10;99.90;;;;;;5053092;28;20037;-75
2021/07/07 01:07:36;;;;;;;4.88;2.88;;;24.10;99.90;;;;;;5051582;28;20417;-75
2021/07/07 01:10:06;;;;;;;3.67;3.20;;;24.10;99.90;;;;;;5052403;28;20032;-75
2021/07/07 01:12:33;;;;;;;2.63;2.50;;;24.10;99.90;;;;;;5038773;28;20025;-76
2021/07/07 01:15:07;;;;;;;3.08;2.78;;;24.10;99.90;;;;;;5033890;28;20027;-75
2021/07/07 01:17:33;;;;;;;3.15;2.90;;;24.00;99.90;;;;;;5039044;28;20056;-75
2021/07/07 01:20:00;;;;;;;3.70;2.90;;;23.90;99.90;;;;;;5054030;28;20038;-76
2021/07/07 01:22:28;;;;;;;4.07;3.35;;;23.90;99.90;;;;;;5053697;28;20037;-75
2021/07/07 01:24:54;;;;;;;4.35;3.00;;;23.90;99.90;;;;;;5053202;28;20024;-76
2021/07/07 01:27:20;;;;;;;3.20;2.78;;;23.90;99.90;;;;;;5054298;28;20091;-75
2021/07/07 01:29:45;;;;;;;4.90;2.55;;;23.90;99.90;;;;;;5053468;28;20033;-76
2021/07/07 01:32:12;;;;;;;3.35;3.15;;;23.90;99.90;;;;;;5053773;28;20056;-76
2021/07/07 01:34:38;;;;;;;2.95;2.75;;;23.90;99.90;;;;;;5053648;28;20025;-75
2021/07/07 01:37:05;;;;;;;3.50;2.67;;;23.90;99.90;;;;;;5054021;28;20082;-75
2021/07/07 01:39:30;;;;;;;4.05;3.42;;;23.90;99.90;;;;;;5053914;28;20163;-75
2021/07/07 01:41:56;;;;;;;3.88;3.47;;;23.90;99.90;;;;;;5053743;28;20530;-75
2021/07/07 01:44:22;;;;;;;3.40;3.08;;;23.90;99.90;;;;;;5053563;28;20048;-75
2021/07/07 01:46:48;;;;;;;3.17;2.97;;;23.90;99.90;;;;;;5052256;28;20017;-75
2021/07/07 01:49:14;;;;;;;3.17;2.97;;;23.80;99.90;;;;;;5053865;28;20036;-75
2021/07/07 01:51:40;;;;;;;7.32;2.97;;;23.80;99.90;;;;;;5053634;28;20013;-75
2021/07/07 01:54:06;;;;;;;3.38;3.08;;;23.80;99.90;;;;;;5062251;28;20418;-75
2021/07/07 01:56:32;;;;;;;3.45;2.97;;;23.80;99.90;;;;;;5073462;28;20020;-75
2021/07/07 01:58:58;;;;;;;3.40;3.10;;;23.70;99.90;;;;;;5073301;28;20016;-75
2021/07/07 02:01:24;;;;;;;3.25;2.95;;;23.70;99.90;;;;;;5071992;28;20549;-75
2021/07/07 02:03:50;;;;;;;3.15;2.95;;;23.70;99.90;;;;;;5073319;28;20559;-76
2021/07/07 02:06:15;;;;;;;2.88;2.70;;;23.70;99.90;;;;;;5073430;28;20028;-75
2021/07/07 02:08:41;;;;;;;3.80;2.80;;;23.70;99.90;;;;;;5073152;28;20340;-76
2021/07/07 02:11:07;;;;;;;4.35;3.47;;;23.80;99.90;;;;;;5069343;28;20040;-76
2021/07/07 02:13:33;;;;;;;3.40;2.58;;;23.80;99.90;;;;;;5051830;28;20024;-76
2021/07/07 02:15:58;;;;;;;2.55;2.45;;;23.80;99.90;;;;;;5051577;28;20617;-76
2021/07/07 02:18:24;;;;;;;3.08;2.88;;;23.80;99.90;;;;;;5053255;28;20029;-75
2021/07/07 02:20:50;;;;;;;3.15;2.95;;;23.70;99.90;;;;;;5053209;28;20523;-76
2021/07/07 02:23:17;;;;;;;4.20;2.83;;;23.70;99.90;;;;;;5052994;28;20017;-75
2021/07/07 02:25:44;;;;;;;3.00;2.42;;;23.60;99.90;;;;;;5053039;28;20029;-75
2021/07/07 02:28:11;;;;;;;3.67;3.40;;;23.50;99.90;;;;;;5052902;28;20017;-76
2021/07/07 02:30:38;;;;;;;3.13;2.92;;;23.50;99.90;;;;;;5052962;28;20521;-75
2021/07/07 02:33:08;;;;;;;4.50;3.15;;;23.40;99.90;;;;;;5053062;28;20048;-75
2021/07/07 02:35:37;;;;;;;3.17;2.83;;;23.40;99.90;;;;;;5052427;28;20096;-75
2021/07/07 02:38:06;;;;;;;3.78;3.40;;;23.50;99.90;;;;;;5051626;28;20020;-75
2021/07/07 02:40:34;;;;;;;3.78;3.10;;;23.40;99.90;;;;;;5052921;28;20056;-75
2021/07/07 02:43:00;;;;;;;3.88;3.58;;;23.40;99.90;;;;;;5033146;28;20025;-75
2021/07/07 02:45:28;;;;;;;6.22;2.35;;;23.50;99.90;;;;;;5032664;28;20167;-75
2021/07/07 02:47:54;;;;;;;3.80;3.13;;;23.50;99.90;;;;;;5032840;28;20100;-75
2021/07/07 02:50:20;;;;;;;8.20;2.78;;;23.60;99.90;;;;;;5032791;28;20105;-75
2021/07/07 02:52:49;;;;;;;3.25;2.95;;;23.60;99.90;;;;;;5032642;28;20048;-75
2021/07/07 02:55:17;;;;;;;2.97;2.78;;;23.60;99.90;;;;;;5031386;28;20026;-75
2021/07/07 02:57:56;;;;;;;4.82;3.30;;;23.60;99.90;;;;;;5032813;28;20032;-75
2021/07/07 03:00:28;;;;;;;4.10;3.22;;;23.60;99.90;;;;;;5032721;28;20025;-75
2021/07/07 03:02:55;;;;;;;3.08;2.88;;;23.50;99.90;;;;;;5031421;28;20132;-75
2021/07/07 03:05:21;;;;;;;3.13;2.80;;;23.50;99.90;;;;;;5032827;28;20057;-75
2021/07/07 03:07:46;;;;;;;3.25;3.00;;;23.50;99.90;;;;;;5032875;28;20103;-76
2021/07/07 03:10:13;;;;;;;3.67;3.38;;;23.40;99.90;;;;;;5036427;28;20035;-75
2021/07/07 03:12:38;;;;;;;4.78;2.67;;;23.40;99.90;;;;;;5052682;28;20024;-75
2021/07/07 03:15:06;;;;;;;3.25;2.90;;;23.50;99.90;;;;;;5052350;28;20434;-75
2021/07/07 03:17:31;;;;;;;4.15;3.28;;;23.40;99.90;;;;;;5050951;28;20071;-75
2021/07/07 03:19:57;;;;;;;3.03;2.75;;;23.50;99.90;;;;;;5051703;28;20621;-75
2021/07/07 03:22:23;;;;;;;3.03;2.72;;;23.50;99.90;;;;;;5052386;28;20471;-76
2021/07/07 03:24:48;;;;;;;3.70;2.88;;;23.50;99.90;;;;;;5052400;28;20049;-76
2021/07/07 03:27:14;;;;;;;3.22;3.03;;;23.50;99.90;;;;;;5052131;28;20021;-76
2021/07/07 03:29:40;;;;;;;3.03;2.80;;;23.50;99.90;;;;;;5052282;28;20022;-75
2021/07/07 03:32:06;;;;;;;3.42;3.13;;;23.40;99.90;;;;;;5050913;28;20025;-75
2021/07/07 03:34:31;;;;;;;3.25;2.97;;;23.30;99.90;;;;;;5052176;28;20070;-76
2021/07/07 03:36:57;;;;;;;3.15;2.90;;;23.30;99.90;;;;;;5052253;28;20025;-75
2021/07/07 03:39:23;;;;;;;4.88;2.92;;;23.30;99.90;;;;;;5051994;28;20029;-75
2021/07/07 03:41:49;;;;;;;2.97;2.78;;;23.30;99.90;;;;;;5052312;28;20446;-75
2021/07/07 03:44:15;;;;;;;2.70;2.60;;;23.30;99.90;;;;;;5052169;28;20025;-75
2021/07/07 03:46:41;;;;;;;4.38;2.75;;;23.30;99.90;;;;;;5053140;28;20102;-75
2021/07/07 03:49:06;;;;;;;7.75;2.97;;;23.30;99.90;;;;;;5055818;28;20459;-75
2021/07/07 03:51:32;;;;;;;3.10;2.90;;;23.30;99.90;;;;;;5055996;28;20082;-75
2021/07/07 03:53:58;;;;;;;2.63;2.42;;;23.30;99.90;;;;;;5055614;28;20106;-76
2021/07/07 03:56:24;;;;;;;3.40;3.20;;;23.30;99.90;;;;;;5056689;28;20463;-75
2021/07/07 03:58:49;;;;;;;5.47;2.80;;;23.30;99.90;;;;;;5075679;28;20027;-75
2021/07/07 04:01:15;;;;;;;3.08;2.88;;;23.30;99.90;;;;;;5075667;28;20120;-75
2021/07/07 04:03:41;;;;;;;2.90;2.70;;;23.30;99.90;;;;;;5075457;28;20031;-75
2021/07/07 04:06:07;;;;;;;3.08;2.88;;;23.30;99.90;;;;;;5075579;28;20025;-75
2021/07/07 04:08:33;;;;;;;2.80;2.60;;;23.30;99.90;;;;;;5074108;28;20107;-75
2021/07/07 04:10:59;;;;;;;2.33;2.22;;;23.30;99.90;;;;;;5072712;28;20056;-75
2021/07/07 04:13:28;;;;;;;3.47;2.83;;;23.30;99.90;;;;;;5054335;28;20456;-75
2021/07/07 04:15:55;;;;;;;2.90;2.70;;;23.30;99.90;;;;;;5053777;28;20021;-75
2021/07/07 04:18:21;;;;;;;3.47;2.70;;;23.40;99.90;;;;;;5055638;28;20057;-75
2021/07/07 04:20:47;;;;;;;4.30;2.83;;;23.40;99.90;;;;;;5054760;28;20065;-75
2021/07/07 04:23:13;;;;;;;3.20;2.70;;;23.40;99.90;;;;;;5055514;28;20129;-75
2021/07/07 04:25:38;;;;;;;3.15;2.95;;;23.30;99.90;;;;;;5055327;28;20571;-75
2021/07/07 04:28:06;;;;;;;3.05;2.85;;;23.40;99.90;;;;;;5055161;28;20098;-75
2021/07/07 04:30:33;;;;;;;3.08;2.88;;;23.40;99.90;;;;;;5053891;28;20025;-75
2021/07/07 04:32:58;;;;;;;2.97;2.78;;;23.40;99.90;;;;;;5055089;28;20433;-76
2021/07/07 04:35:24;;;;;;;3.45;3.15;;;23.40;99.90;;;;;;5055057;28;20029;-76
2021/07/07 04:37:50;;;;;;;4.70;3.10;;;23.40;99.90;;;;;;5053565;28;20115;-76
2021/07/07 04:40:18;;;;;;;5.30;2.83;;;23.40;99.90;;;;;;5054935;28;20115;-75
2021/07/07 04:42:44;;;;;;;2.97;2.78;;;23.50;99.90;;;;;;5037734;28;20061;-75
2021/07/07 04:45:10;;;;;;;4.28;2.90;;;23.50;99.90;;;;;;5034946;28;20033;-75
2021/07/07 04:47:37;;;;;;;2.85;2.65;;;23.50;99.90;;;;;;5034910;28;20025;-75
2021/07/07 04:50:09;;;;;;;3.30;2.58;;;23.50;99.90;;;;;;5034988;28;20052;-75
2021/07/07 04:52:35;;;;;;;2.80;2.70;;;23.50;99.90;;;;;;5034657;28;20042;-75
2021/07/07 04:55:03;;;;;;;2.78;2.58;;;23.60;99.90;;;;;;5034923;28;20396;-75
2021/07/07 04:57:28;;;;;;;2.95;2.60;;;23.60;99.90;;;;;;5034695;28;20029;-75
2021/07/07 04:59:54;;;;;;;2.90;2.70;;;23.60;99.90;;;;;;5034933;28;20396;-75
2021/07/07 05:02:20;;;;;;;3.45;2.97;;;23.60;99.90;;;;;;5034685;28;20395;-75
2021/07/07 05:04:50;;;;;;;3.03;2.42;;;23.60;99.90;;;;;;5034507;28;20100;-75
2021/07/07 05:07:15;;;;;;;5.13;2.70;;;23.70;99.90;;;;;;5034652;28;20472;-75
2021/07/07 05:09:41;;;;;;;2.70;2.50;;;23.70;99.90;;;;;;5038657;28;20062;-75
2021/07/07 05:12:07;;;;;;;2.78;2.58;;;23.70;99.90;;;;;;5054322;28;20479;-75
2021/07/07 05:14:34;;;;;;;3.05;2.85;;;23.80;99.90;;;;;;5054469;28;20047;-75
2021/07/07 05:17:00;;;;;;;2.95;2.75;;;23.80;99.90;;;;;;5054460;28;20033;-75
2021/07/07 05:19:25;;;;;;;3.33;2.70;;;23.90;99.90;;;;;;5052341;28;20033;-76
2021/07/07 05:21:51;;;;;;;2.95;2.65;;;23.90;99.90;;;;;;5054401;28;20395;-76
2021/07/07 05:24:17;;;;;;;3.63;2.75;;;24.00;99.90;;;;;;5054032;28;20043;-75
2021/07/07 05:26:42;;;;;;;3.45;3.15;;;24.00;99.90;;;;;;5054087;28;20025;-75
2021/07/07 05:29:08;;;;;;;3.90;3.05;;;24.10;99.90;;;;;;5054004;28;20025;-76
2021/07/07 05:31:34;;;;;;;8.80;3.03;;;24.10;99.90;;;;;;5054248;28;20107;-75
2021/07/07 05:34:00;;;;;;;4.45;2.95;;;24.20;99.90;;;;;;5052507;28;20525;-75
2021/07/07 05:36:25;;;;;;;2.92;2.72;;;24.20;99.90;;;;;;5053911;28;20096;-75
2021/07/07 05:38:51;;;;;;;3.72;3.08;;;24.30;99.90;;;;;;5054124;28;20021;-75
2021/07/07 05:41:17;;;;;;;3.10;2.90;;;24.30;99.90;;;;;;5048457;28;20025;-76
2021/07/07 05:43:42;;;;;;;6.55;3.03;;;24.40;99.90;;;;;;5033966;28;20090;-75
2021/07/07 05:46:08;;;;;;;2.95;2.75;;;24.40;99.90;;;;;;5033966;28;20380;-75
2021/07/07 05:48:34;;;;;;;3.80;2.83;;;24.40;99.90;;;;;;5033904;28;20105;-76
2021/07/07 05:51:01;;;;;;;5.32;2.80;;;24.50;99.90;;;;;;5032465;28;20113;-75
2021/07/07 05:53:28;;;;;;;3.15;2.95;;;24.50;99.90;;;;;;5061536;28;20071;-75
2021/07/07 05:55:54;;;;;;;2.90;2.72;;;24.50;99.90;;;;;;5073822;28;20016;-76
2021/07/07 05:58:19;;;;;;;2.83;2.72;;;24.50;99.90;;;;;;5073457;28;20215;-76
2021/07/07 06:00:45;;;;;;;3.70;3.42;;;24.60;99.90;;;;;;5073636;28;20025;-76
2021/07/07 06:03:11;;;;;;;3.53;3.33;;;24.60;99.90;;;;;;5072225;28;20085;-76
2021/07/07 06:05:37;;;;;;;2.97;2.85;;;24.60;99.90;;;;;;5073323;28;20417;-76
2021/07/07 06:08:03;;;;;;;3.05;2.72;;;24.70;99.90;;;;;;5072002;28;20036;-76
2021/07/07 06:10:29;;;;;;;3.25;2.97;;;24.80;99.90;;;;;;5052575;28;20438;-76
2021/07/07 06:12:56;;;;;;;4.03;3.33;;;24.80;99.90;;;;;;5045643;28;20060;-76
2021/07/07 06:15:23;;;;;;;3.67;3.40;;;24.80;99.90;;;;;;5052485;28;20029;-76
2021/07/07 06:17:49;;;;;;;3.58;3.28;;;24.90;99.90;;;;;;5050552;28;20024;-76
2021/07/07 06:20:15;;;;;;;4.57;3.20;;;24.90;99.90;;;;;;5051805;28;20364;-76
2021/07/07 06:22:42;;;;;;;6.28;3.03;;;25.00;99.90;;;;;;5051980;28;20029;-76
2021/07/07 06:25:11;;;;;;;3.65;3.17;;;25.00;99.90;;;;;;5052229;28;20033;-75
2021/07/07 06:27:39;;;;;;;5.60;3.40;;;25.10;99.90;;;;;;5052376;28;20029;-76
2021/07/07 06:30:07;;;;;;;3.22;2.92;;;25.10;99.90;;;;;;5052150;28;20063;-76
2021/07/07 06:32:32;;;;;;;3.35;3.13;;;25.20;99.90;;;;;;5052107;28;20078;-76
2021/07/07 06:35:01;;;;;;;3.60;3.30;;;25.20;99.90;;;;;;5052504;28;20032;-76
2021/07/07 06:37:28;;;;;;;3.80;3.50;;;25.20;99.90;;;;;;5052802;28;20048;-76
2021/07/07 06:39:54;;;;;;;4.35;2.83;;;25.30;99.90;;;;;;5052812;28;20169;-76
2021/07/07 06:42:19;;;;;;;6.15;3.20;;;25.30;99.90;;;;;;5052446;28;20471;-76
2021/07/07 06:44:45;;;;;;;3.05;2.85;;;25.30;99.90;;;;;;5052432;28;20071;-76
2021/07/07 06:47:11;;;;;;;5.68;3.45;;;25.40;99.90;;;;;;5052579;28;20531;-75
2021/07/07 06:49:37;;;;;;;3.80;3.50;;;25.40;99.90;;;;;;5052482;28;20025;-75
2021/07/07 06:52:04;;;;;;;4.38;3.45;;;25.40;99.90;;;;;;5051940;28;20032;-75
2021/07/07 06:54:30;;;;;;;4.32;3.42;;;25.50;99.90;;;;;;5052296;28;20028;-75
2021/07/07 06:56:56;;;;;;;5.82;3.40;;;25.50;99.90;;;;;;5052350;28;20021;-75
2021/07/07 06:59:21;;;;;;;3.78;2.88;;;25.60;99.90;;;;;;5052741;28;20112;-75
2021/07/07 07:01:47;;;;;;;3.83;3.53;;;25.70;99.90;;;;;;5052737;28;20109;-76
2021/07/07 07:04:13;;;;;;;4.57;3.88;;;25.70;99.90;;;;;;5052369;28;20029;-75
2021/07/07 07:06:39;;;;;;;4.13;3.72;;;25.70;99.90;;;;;;5052230;28;20028;-76
2021/07/07 07:09:05;;;;;;;8.25;3.05;;;25.80;99.90;;;;;;5048476;28;20037;-75
2021/07/07 07:11:31;;;;;;;3.60;3.30;;;25.90;99.90;;;;;;5051238;28;20510;-75
2021/07/07 07:13:57;;;;;;;8.02;3.90;;;25.90;99.90;;;;;;5049722;28;20422;-75
2021/07/07 07:16:22;;;;;;;3.67;3.40;;;26.00;99.90;;;;;;5051154;28;20032;-75
2021/07/07 07:18:48;;;;;;;4.05;3.67;;;26.10;99.90;;;;;;5051356;28;20033;-75
2021/07/07 07:21:15;;;;;;;3.40;3.10;;;26.20;99.90;;;;;;5053112;28;20025;-75
2021/07/07 07:23:41;;;;;;;3.83;3.50;;;26.20;99.90;;;;;;5054905;28;20029;-75
2021/07/07 07:26:07;;;;;;;5.38;4.18;;;26.30;99.10;;;;;;5055298;28;20035;-75
2021/07/07 07:28:32;;;;;;;5.95;3.00;;;26.30;99.30;;;;;;5049477;28;20041;-75
2021/07/07 07:30:59;;;;;;;4.40;3.22;;;26.40;99.40;;;;;;5051393;28;20029;-75
2021/07/07 07:33:25;;;;;;;14.25;3.20;;;26.40;99.20;;;;;;5053458;28;20363;-75
2021/07/07 07:35:51;;;;;;;5.15;3.25;;;26.50;98.90;;;;;;5052480;28;20029;-75
2021/07/07 07:38:26;;;;;;;3.58;3.13;;;26.50;99.50;;;;;;5055172;28;20075;-75
2021/07/07 07:40:53;;;;;;;4.03;3.72;;;26.50;99.20;;;;;;5053133;28;20053;-75
2021/07/07 07:43:22;;;;;;;5.60;3.38;;;26.60;99.20;;;;;;5052867;28;20106;-75
2021/07/07 07:45:54;;;;;;;3.25;2.78;;;26.70;98.90;;;;;;5056196;28;20016;-75
2021/07/07 07:48:20;;;;;;;5.95;3.72;;;26.60;98.00;;;;;;5084571;28;20459;-74
2021/07/07 07:50:46;;;;;;;4.00;3.55;;;26.70;97.40;;;;;;5054854;28;20096;-75
2021/07/07 07:53:12;;;;;;;3.70;3.20;;;26.70;97.00;;;;;;5053278;28;20044;-75
2021/07/07 07:55:39;;;;;;;3.67;3.38;;;26.70;97.50;;;;;;5054930;28;20536;-74
2021/07/07 07:58:04;;;;;;;3.30;3.00;;;26.70;97.10;;;;;;5054411;28;20052;-74
2021/07/07 08:00:30;;;;;;;4.57;3.30;;;26.80;98.00;;;;;;5053944;28;20518;-75
2021/07/07 08:02:56;;;;;;;3.40;3.10;;;26.70;97.90;;;;;;5053881;28;20098;-75
2021/07/07 08:05:23;;;;;;;5.25;3.50;;;26.80;97.70;;;;;;5053055;28;20417;-75
2021/07/07 08:07:49;;;;;;;3.53;3.17;;;26.80;97.50;;;;;;5053465;28;20087;-75
2021/07/07 08:10:19;;;;;;;3.35;3.05;;;26.90;97.50;;;;;;5053309;28;20025;-75
2021/07/07 08:12:45;;;;;;;10.52;3.83;;;27.00;97.20;;;;;;5054485;28;20023;-75
2021/07/07 08:15:14;;;;;;;6.35;3.67;;;27.10;96.60;;;;;;5054386;28;20048;-75
2021/07/07 08:17:40;;;;;;;3.03;2.83;;;27.10;96.80;;;;;;5054164;28;20026;-75
2021/07/07 08:20:08;;;;;;;5.07;3.28;;;27.10;97.00;;;;;;5053853;28;20017;-75
2021/07/07 08:22:34;;;;;;;3.75;3.45;;;27.10;96.90;;;;;;5046969;28;20025;-75
2021/07/07 08:25:00;;;;;;;4.20;3.72;;;27.20;97.00;;;;;;5054001;28;20040;-75
2021/07/07 08:27:26;;;;;;;4.03;3.78;;;27.30;96.50;;;;;;5053694;28;20665;-75
2021/07/07 08:29:52;;;;;;;3.80;3.35;;;27.30;96.40;;;;;;5048746;28;20103;-75
2021/07/07 08:32:17;;;;;;;4.72;3.22;;;27.40;97.10;;;;;;5051377;28;20691;-75
2021/07/07 08:34:43;;;;;;;3.70;3.50;;;27.50;97.40;;;;;;5052808;28;20086;-75
2021/07/07 08:37:12;;;;;;;6.13;4.13;;;27.50;97.50;;;;;;5049919;28;20032;-75
2021/07/07 08:39:38;;;;;;;4.25;3.90;;;27.60;96.50;;;;;;5050851;28;20090;-75
2021/07/07 08:42:04;;;;;;;4.70;4.18;;;27.60;96.20;;;;;;5045831;28;20041;-75
2021/07/07 08:44:30;;;;;;;4.55;4.13;;;27.60;96.00;;;;;;5052276;28;20033;-75
2021/07/07 08:46:55;;;;;;;4.55;4.15;;;27.60;96.20;;;;;;5050421;28;20032;-75
2021/07/07 08:49:22;;;;;;;6.90;4.53;;;27.60;96.00;;;;;;5051806;28;20101;-75
2021/07/07 08:51:48;;;;;;;4.72;4.43;;;27.60;96.30;;;;;;5051664;28;20036;-75
2021/07/07 08:54:14;;;;;;;4.47;4.07;;;27.60;96.40;;;;;;5052261;28;20090;-75
2021/07/07 08:56:43;;;;;;;6.40;4.20;;;27.60;96.90;;;;;;5051719;28;20104;-75
2021/07/07 08:59:10;;;;;;;7.97;4.20;;;27.80;96.80;;;;;;5048718;28;20063;-75
2021/07/07 09:02:01;;;;;;;5.22;4.65;;;27.80;96.20;;;;;;5052509;28;20036;-75
2021/07/07 09:04:42;;;;;;;4.60;4.05;;;27.80;97.10;;;;;;5047316;28;20536;-75
2021/07/07 09:07:16;;;;;;;12.20;5.15;;;27.90;96.10;;;;;;5051319;28;20459;-75
2021/07/07 09:09:44;;;;;;;5.32;4.38;;;28.00;95.80;;;;;;5051426;28;20095;-75
2021/07/07 09:12:16;;;;;;;4.97;4.53;;;28.10;96.40;;;;;;5052081;28;20059;-76
2021/07/07 09:14:43;;;;;;;8.98;4.20;;;28.20;96.20;;;;;;5051348;28;20052;-75
2021/07/07 09:17:12;;;;;;;3.72;3.42;;;28.30;96.30;;;;;;5051555;28;20025;-75
2021/07/07 09:19:38;;;;;;;7.53;4.10;;;28.50;95.00;;;;;;5051704;28;20021;-75
2021/07/07 09:22:07;;;;;;;3.90;3.60;;;28.50;94.80;;;;;;5043154;28;20029;-76
2021/07/07 09:24:34;;;;;;;4.60;3.53;;;28.50;93.80;;;;;;5051347;28;20477;-75
2021/07/07 09:27:02;;;;;;;2.80;2.53;;;28.50;94.10;;;;;;5047451;28;20076;-75
2021/07/07 09:29:40;;;;;;;3.05;2.85;;;28.50;93.50;;;;;;5042997;28;20112;-75
2021/07/07 09:32:28;;;;;;;3.20;3.00;;;28.50;93.40;;;;;;5051584;28;20113;-75
2021/07/07 09:34:59;;;;;;;2.67;2.47;;;28.50;92.50;;;;;;5077971;28;20116;-74
2021/07/07 09:37:29;;;;;;;3.15;2.92;;;28.60;92.60;;;;;;5050704;28;20503;-74
2021/07/07 09:40:04;;;;;;;3.97;3.22;;;28.60;91.10;;;;;;5049049;28;20033;-75
2021/07/07 09:42:32;;;;;;;3.38;3.08;;;28.60;90.30;;;;;;5050723;28;20490;-75
2021/07/07 09:45:00;;;;;;;4.20;2.63;;;28.60;90.30;;;;;;5050471;28;20075;-75
2021/07/07 09:47:28;;;;;;;3.08;2.78;;;28.60;89.60;;;;;;5052241;28;20013;-75
2021/07/07 09:49:55;;;;;;;5.43;3.13;;;28.60;91.00;;;;;;5051525;28;20035;-75
2021/07/07 09:52:27;;;;;;;5.47;2.70;;;28.70;90.90;;;;;;5047223;28;20128;-75
2021/07/07 09:54:54;;;;;;;3.80;2.53;;;28.70;90.10;;;;;;5048477;28;20033;-75
2021/07/07 09:57:20;;;;;;;2.40;2.20;;;28.70;90.30;;;;;;5047521;28;20096;-75
2021/07/07 09:59:46;;;;;;;2.20;2.10;;;28.80;90.20;;;;;;5048466;28;20036;-75
2021/07/07 10:02:13;;;;;;;2.75;2.47;;;28.90;90.50;;;;;;5048610;28;20482;-75
2021/07/07 10:04:42;;;;;;;2.63;2.38;;;29.00;90.70;;;;;;5048786;28;20490;-75
2021/07/07 10:07:09;;;;;;;1.92;1.83;;;29.20;89.30;;;;;;5047325;28;20063;-75
2021/07/07 10:09:40;;;;;;;2.05;1.95;;;29.40;88.90;;;;;;5048325;28;20029;-75
2021/07/07 10:12:06;;;;;;;2.53;2.30;;;29.60;85.90;;;;;;5048650;28;20060;-75
2021/07/07 10:14:33;;;;;;;1.90;1.80;;;29.60;85.40;;;;;;5048415;28;20648;-75
2021/07/07 10:16:59;;;;;;;2.90;1.55;;;29.60;87.10;;;;;;5047512;28;20358;-75
2021/07/07 10:19:26;;;;;;;6.82;2.05;;;29.80;81.90;;;;;;5048352;28;20479;-75
2021/07/07 10:21:52;;;;;;;1.60;1.50;;;30.00;77.80;;;;;;5048275;28;20036;-75
2021/07/07 10:24:22;;;;;;;1.80;1.70;;;30.20;79.40;;;;;;5048381;28;20036;-75
2021/07/07 10:26:51;;;;;;;1.27;1.27;;;30.50;76.30;;;;;;5048066;28;20458;-75
2021/07/07 10:29:18;;;;;;;1.55;1.45;;;30.70;72.80;;;;;;5046362;28;20737;-77
2021/07/07 10:31:52;;;;;;;1.98;1.88;;;30.60;73.70;;;;;;5048421;28;20028;-75
2021/07/07 10:34:21;;;;;;;2.67;1.40;;;30.70;73.40;;;;;;5047116;28;20032;-75
2021/07/07 10:36:47;;;;;;;2.55;2.20;;;30.70;74.70;;;;;;5046838;28;20066;-76
2021/07/07 10:39:15;;;;;;;3.33;1.92;;;30.70;74.10;;;;;;5047781;28;20498;-75
2021/07/07 10:44:11;;;;;;;2.58;1.80;;;30.90;73.70;;;;;;5048319;28;20047;-76
2021/07/07 10:47:05;;;;;;;4.63;2.60;;;31.10;72.30;;;;;;5047679;28;20076;-75
2021/07/07 10:49:40;;;;;;;1.83;1.73;;;31.10;70.30;;;;;;5045872;28;20078;-75
2021/07/07 10:52:08;;;;;;;1.42;1.33;;;31.20;68.10;;;;;;5048124;28;20029;-75
2021/07/07 10:54:40;;;;;;;1.50;1.40;;;31.30;68.00;;;;;;5044901;28;20784;-75
2021/07/07 10:57:09;;;;;;;;;;;31.30;69.10;;;;;;5050128;28;20082;-75
2021/07/07 10:59:45;;;;;;;1.73;1.60;;;31.30;67.00;;;;;;5045977;28;19915;-76
2021/07/07 11:02:25;;;;;;;1.60;1.55;;;31.30;69.30;;;;;;5041454;28;20033;-75
2021/07/07 11:04:52;;;;;;;2.03;1.92;;;31.50;69.80;;;;;;5046703;28;20036;-75
2021/07/07 11:07:35;;;;;;;2.03;1.60;;;31.60;68.20;;;;;;5048378;28;20044;-76
2021/07/07 11:10:12;;;;;;;1.90;1.80;;;31.70;66.30;;;;;;5053670;28;20055;-76
2021/07/07 11:12:41;;;;;;;1.52;1.42;;;31.70;65.70;;;;;;5045393;28;20024;-75
2021/07/07 11:15:09;;;;;;;1.85;1.42;;;31.80;65.60;;;;;;5044085;28;20025;-76
2021/07/07 11:17:35;;;;;;;2.15;1.67;;;31.90;65.30;;;;;;5046337;28;20052;-76
2021/07/07 11:20:07;;;;;;;1.63;1.55;;;31.90;63.50;;;;;;5048699;28;20357;-76
2021/07/07 11:22:34;;;;;;;2.55;1.73;;;31.90;62.00;;;;;;5048484;28;20017;-76
2021/07/07 11:25:04;;;;;;;2.28;1.83;;;31.90;63.00;;;;;;5045789;28;20471;-76
2021/07/07 11:27:32;;;;;;;1.42;1.33;;;31.90;60.80;;;;;;5047890;28;20667;-76
2021/07/07 11:29:58;;;;;;;8.15;1.75;;;32.10;64.00;;;;;;5047976;28;20116;-75
2021/07/07 11:32:36;;;;;;;1.58;1.48;;;32.10;64.20;;;;;;5046063;28;20033;-76
2021/07/07 11:35:08;;;;;;;1.70;1.60;;;32.20;61.60;;;;;;5047917;28;20462;-76
2021/07/07 11:37:35;;;;;;;1.80;1.70;;;32.30;59.00;;;;;;5047513;28;20017;-76
2021/07/07 11:40:14;;;;;;;1.70;1.60;;;32.20;58.70;;;;;;5050389;28;20570;-76
2021/07/07 11:42:59;;;;;;;1.80;1.70;;;32.30;58.40;;;;;;5041837;28;20021;-76
2021/07/07 11:45:31;;;;;;;1.67;1.58;;;32.20;57.80;;;;;;5048753;28;20036;-76
2021/07/07 11:48:18;;;;;;;5.55;1.48;;;32.30;58.00;;;;;;5050677;28;20110;-75
2021/07/07 11:50:52;;;;;;;3.67;1.67;;;32.30;59.20;;;;;;5048301;28;20029;-76
2021/07/07 11:53:18;;;;;;;2.30;1.38;;;32.50;58.90;;;;;;5047876;28;20064;-76
2021/07/07 11:55:53;;;;;;;1.45;1.35;;;32.50;57.70;;;;;;5049088;28;20107;-76
2021/07/07 11:58:24;;;;;;;1.48;1.38;;;32.70;58.20;;;;;;5047706;28;20028;-76
2021/07/07 12:00:51;;;;;;;2.58;1.48;;;32.70;57.80;;;;;;5050909;28;20541;-76
2021/07/07 12:03:19;;;;;;;1.45;1.35;;;32.90;58.80;;;;;;5048451;28;20352;-76
2021/07/07 12:05:54;;;;;;;1.30;1.20;;;32.90;57.50;;;;;;5046625;28;20068;-76
2021/07/07 12:08:31;;;;;;;1.40;1.30;;;32.90;56.80;;;;;;5049673;28;20033;-76
2021/07/07 12:11:17;;;;;;;3.88;1.30;;;33.00;56.10;;;;;;5049679;28;20028;-76
2021/07/07 12:13:46;;;;;;;1.30;1.20;;;33.10;56.50;;;;;;5045321;28;20049;-76
2021/07/07 12:16:24;;;;;;;2.25;1.25;;;33.10;58.00;;;;;;5052756;28;20028;-76
2021/07/07 12:18:54;;;;;;;1.48;1.40;;;33.30;54.90;;;;;;5051446;28;20569;-76
2021/07/07 12:21:23;;;;;;;1.20;1.20;;;33.30;53.70;;;;;;5051300;28;20107;-76
2021/07/07 12:23:54;;;;;;;1.20;1.20;;;33.40;54.90;;;;;;5051658;28;20029;-76
2021/07/07 12:26:44;;;;;;;1.90;1.20;;;33.50;55.40;;;;;;5055403;28;20056;-76
2021/07/07 12:29:19;;;;;;;1.35;1.25;;;33.60;52.60;;;;;;5049562;28;20033;-76
2021/07/07 12:31:45;;;;;;;1.55;1.10;;;33.60;52.10;;;;;;5049915;28;20420;-76
2021/07/07 12:34:12;;;;;;;1.33;1.33;;;33.60;51.50;;;;;;5050155;28;20048;-76
2021/07/07 12:36:39;;;;;;;2.30;1.38;;;33.60;52.40;;;;;;5050252;28;20025;-76
2021/07/07 12:39:20;;;;;;;2.00;1.30;;;33.70;52.50;;;;;;5051328;28;20028;-76
2021/07/07 12:41:49;;;;;;;1.57;1.37;;;33.70;54.60;;;;;;5049949;28;20029;-76
2021/07/07 12:44:24;;;;;;;1.35;1.30;;;33.80;51.40;;;;;;5050547;28;20068;-76
2021/07/07 12:47:01;;;;;;;1.15;1.15;;;33.90;51.70;;;;;;5050204;28;20445;-76
2021/07/07 12:49:43;;;;;;;1.30;1.20;;;34.00;51.40;;;;;;5048804;28;20021;-76
2021/07/07 12:52:29;;;;;;;1.45;1.10;;;34.00;49.20;;;;;;5047534;28;20618;-76
2021/07/07 12:55:06;;;;;;;2.00;1.10;;;34.20;51.50;;;;;;5045373;28;20128;-76